Time;durP1;ratioP1;P1;durP2;ratioP2;P2;SDS_P1;SDS_P2;PMS_P1;PMS_P2;Temp;Humidity;BMP_temperature;BMP_pressure;BME280_temperature;BME280_humidity;BME280_pressure;Samples;Min_cycle;Max_cycle;Signal;HPM_P1;HPM_P2
2022/08/04 00:00:25;;;;;;;;;;;24.70;70.50;;;;;;6280429;22;19936;-96
2022/08/04 00:03:13;;;;;;;;;;;24.50;72.40;;;;;;6279936;22;20321;-96
2022/08/04 00:05:48;;;;;;;;;;;24.50;72.50;;;;;;6280014;22;19938;-96
2022/08/04 00:08:32;;;;;;;;;;;24.60;72.50;;;;;;6279616;22;19957;-96
2022/08/04 00:10:59;;;;;;;;;;;24.70;72.20;;;;;;6280028;22;20363;-96
2022/08/04 00:13:25;;;;;;;;;;;24.60;73.00;;;;;;6280014;22;19930;-96
2022/08/04 00:15:52;;;;;;;;;;;24.40;73.10;;;;;;6279663;22;19934;-96
2022/08/04 00:18:21;;;;;;;;;;;24.30;74.40;;;;;;6279388;22;19940;-96
2022/08/04 00:20:46;;;;;;;;;;;24.40;76.30;;;;;;6278599;22;19981;-96
2022/08/04 00:23:12;;;;;;;;;;;24.30;76.70;;;;;;6278454;22;20243;-96
2022/08/04 00:25:43;;;;;;;;;;;24.20;76.90;;;;;;6278548;22;20263;-96
2022/08/04 00:28:09;;;;;;;;;;;24.00;76.90;;;;;;6278260;22;19997;-96
2022/08/04 00:30:35;;;;;;;;;;;23.90;77.50;;;;;;6280364;22;19936;-96
2022/08/04 00:33:01;;;;;;;;;;;23.80;78.20;;;;;;6280380;22;20008;-96
2022/08/04 00:35:28;;;;;;;;;;;23.80;78.40;;;;;;6253217;22;19965;-96
2022/08/04 00:37:54;;;;;;;;;;;23.90;78.50;;;;;;6281000;22;19939;-96
2022/08/04 00:40:22;;;;;;;;;;;24.00;78.10;;;;;;6280907;22;19976;-96
2022/08/04 00:42:53;;;;;;;;;;;24.00;77.80;;;;;;6281693;22;19942;-96
2022/08/04 00:45:24;;;;;;;;;;;23.90;77.40;;;;;;6280770;22;19937;-96
2022/08/04 00:47:50;;;;;;;;;;;23.80;77.80;;;;;;6281933;22;19981;-96
2022/08/04 00:50:18;;;;;;;;;;;23.80;76.80;;;;;;6281716;22;19931;-96
2022/08/04 00:52:47;;;;;;;;;;;23.90;75.00;;;;;;6281792;22;19937;-96
2022/08/04 00:55:30;;;;;;;;;;;23.90;73.40;;;;;;6254406;22;19957;-96
2022/08/04 00:58:12;;;;;;;;;;;24.00;73.80;;;;;;6281602;22;19959;-96
2022/08/04 01:00:58;;;;;;;;;;;24.00;73.60;;;;;;6282273;22;19942;-96
2022/08/04 01:03:26;;;;;;;;;;;24.10;75.00;;;;;;6281898;22;19955;-96
2022/08/04 01:06:08;;;;;;;;;;;24.10;75.90;;;;;;6282830;22;19983;-96
2022/08/04 01:08:36;;;;;;;;;;;24.10;76.20;;;;;;6254983;22;19962;-96
2022/08/04 01:11:08;;;;;;;;;;;24.00;76.50;;;;;;6281852;22;19936;-96
2022/08/04 01:13:46;;;;;;;;;;;23.90;75.10;;;;;;6280862;22;19935;-96
2022/08/04 01:16:15;;;;;;;;;;;23.70;74.80;;;;;;6282328;22;19945;-96
2022/08/04 01:18:49;;;;;;;;;;;23.80;74.40;;;;;;6281110;22;20020;-96
2022/08/04 01:21:43;;;;;;;;;;;23.80;74.20;;;;;;6281425;22;19969;-96
2022/08/04 01:24:08;;;;;;;;;;;23.80;74.40;;;;;;6281374;22;19961;-96
2022/08/04 01:26:34;;;;;;;;;;;23.80;73.70;;;;;;6280802;22;20348;-96
2022/08/04 01:28:59;;;;;;;;;;;23.80;72.60;;;;;;6280209;22;20387;-96
2022/08/04 01:31:33;;;;;;;;;;;23.70;74.30;;;;;;6280317;22;19978;-96
2022/08/04 01:33:59;;;;;;;;;;;23.70;74.60;;;;;;6280402;22;19945;-96
2022/08/04 01:36:25;;;;;;;;;;;23.60;74.50;;;;;;6280214;22;19960;-96
2022/08/04 01:38:52;;;;;;;;;;;23.60;73.20;;;;;;6281116;22;19940;-96
2022/08/04 01:41:18;;;;;;;;;;;23.70;72.30;;;;;;6281570;22;19941;-96
2022/08/04 01:43:45;;;;;;;;;;;23.70;72.60;;;;;;6281999;22;20351;-96
2022/08/04 01:46:12;;;;;;;;;;;23.80;73.20;;;;;;6254169;22;19935;-96
2022/08/04 01:48:38;;;;;;;;;;;23.70;74.00;;;;;;6281946;22;19949;-96
2022/08/04 01:51:05;;;;;;;;;;;23.70;74.50;;;;;;6281134;22;19938;-96
2022/08/04 01:53:31;;;;;;;;;;;23.70;75.50;;;;;;6253954;22;19987;-96
2022/08/04 01:55:57;;;;;;;;;;;23.30;74.90;;;;;;6280487;22;19944;-96
2022/08/04 01:58:24;;;;;;;;;;;23.00;76.10;;;;;;6280450;22;19935;-96
2022/08/04 02:00:55;;;;;;;;;;;23.00;76.40;;;;;;6281398;22;19949;-96
2022/08/04 02:03:20;;;;;;;;;;;23.10;76.40;;;;;;6280968;22;19944;-96
2022/08/04 02:05:47;;;;;;;;;;;23.20;76.60;;;;;;6281343;22;19939;-96
2022/08/04 02:08:41;;;;;;;;;;;23.20;76.50;;;;;;6281319;22;19951;-96
2022/08/04 02:11:10;;;;;;;;;;;23.20;75.40;;;;;;6147007;22;19971;-96
2022/08/04 02:13:46;;;;;;;;;;;23.10;76.10;;;;;;6282193;22;19965;-96
2022/08/04 02:16:20;;;;;;;;;;;23.20;76.10;;;;;;6282002;22;19941;-96
2022/08/04 02:18:55;;;;;;;;;;;23.20;76.20;;;;;;6281614;22;20009;-96
2022/08/04 02:21:24;;;;;;;;;;;23.20;76.10;;;;;;6281048;22;19975;-96
2022/08/04 02:23:52;;;;;;;;;;;23.20;76.20;;;;;;6253984;22;19943;-96
2022/08/04 02:26:19;;;;;;;;;;;23.20;76.10;;;;;;6253307;22;19938;-96
2022/08/04 02:28:57;;;;;;;;;;;23.20;76.40;;;;;;6280514;22;19958;-96
2022/08/04 02:31:26;;;;;;;;;;;23.20;76.40;;;;;;6253274;22;19943;-96
2022/08/04 02:33:58;;;;;;;;;;;23.20;76.20;;;;;;6280701;22;19942;-96
2022/08/04 02:36:29;;;;;;;;;;;23.10;76.30;;;;;;6280214;22;19946;-96
2022/08/04 02:42:46;;;;;;;;;;;23.10;76.50;;;;;;5155236;27;19942;-96
2022/08/04 02:45:12;;;;;;;;;;;22.80;77.50;;;;;;5154143;27;19945;-96
2022/08/04 02:47:38;;;;;;;;;;;22.80;77.80;;;;;;5154591;27;19944;-96
2022/08/04 02:50:04;;;;;;;;;;;22.80;78.40;;;;;;5155102;27;19943;-96
2022/08/04 02:52:31;;;;;;;;;;;22.70;79.20;;;;;;5136076;27;20333;-96
2022/08/04 02:54:58;;;;;;;;;;;22.60;79.50;;;;;;5155326;27;19982;-96
2022/08/04 02:57:28;;;;;;;;;;;22.40;79.90;;;;;;5155151;27;20098;-96
2022/08/04 03:00:13;;;;;;;;;;;22.40;80.20;;;;;;5155507;27;19989;-96
2022/08/04 03:02:38;;;;;;;;;;;22.40;80.10;;;;;;5155835;27;19977;-96
2022/08/04 03:05:11;;;;;;;;;;;22.50;79.80;;;;;;5155527;27;19959;-96
2022/08/04 03:07:43;;;;;;;;;;;22.50;79.60;;;;;;5155445;27;19940;-96
2022/08/04 03:10:08;;;;;;;;;;;22.20;78.80;;;;;;5154708;27;20022;-96
2022/08/04 03:12:40;;;;;;;;;;;22.00;79.60;;;;;;5154923;27;19998;-96
2022/08/04 03:15:24;;;;;;;;;;;22.00;79.90;;;;;;5155559;27;19939;-96
2022/08/04 03:17:58;;;;;;;;;;;22.20;80.20;;;;;;5155243;27;19985;-96
2022/08/04 03:20:24;;;;;;;;;;;22.30;80.50;;;;;;5154837;27;20002;-96
2022/08/04 03:23:08;;;;;;;;;;;22.20;80.70;;;;;;5154958;27;19936;-96
2022/08/04 03:25:40;;;;;;;;;;;22.30;80.40;;;;;;5153966;27;19945;-96
2022/08/04 03:28:14;;;;;;;;;;;22.20;80.00;;;;;;5153157;27;19986;-96
2022/08/04 03:31:06;;;;;;;;;;;22.10;79.70;;;;;;5153871;27;19943;-96
2022/08/04 03:33:34;;;;;;;;;;;22.00;79.80;;;;;;5114116;27;19940;-96
2022/08/04 03:36:00;;;;;;;;;;;21.90;80.30;;;;;;5147261;27;19961;-96
2022/08/04 03:38:28;;;;;;;;;;;21.90;80.40;;;;;;5132574;28;19937;-96
2022/08/04 03:41:11;;;;;;;;;;;21.80;80.20;;;;;;5131663;28;19987;-96
2022/08/04 03:43:45;;;;;;;;;;;21.80;80.30;;;;;;5131980;28;19939;-96
2022/08/04 03:46:25;;;;;;;;;;;21.70;80.70;;;;;;5135748;28;19931;-96
2022/08/04 03:49:07;;;;;;;;;;;21.70;81.20;;;;;;5121871;28;19963;-96
2022/08/04 03:58:51;;;;;;;;;;;21.50;81.70;;;;;;5096600;27;2276359;-96
2022/08/04 04:01:22;;;;;;;;;;;21.40;82.20;;;;;;5177249;27;19943;-96
2022/08/04 04:03:53;;;;;;;;;;;21.40;81.70;;;;;;5177524;27;19949;-96
2022/08/04 04:06:22;;;;;;;;;;;21.40;81.60;;;;;;5177947;27;19987;-96
2022/08/04 04:08:59;;;;;;;;;;;21.30;82.00;;;;;;5178310;27;20001;-96
2022/08/04 04:11:31;;;;;;;;;;;21.30;82.40;;;;;;5178739;27;20035;-96
2022/08/04 04:13:59;;;;;;;;;;;21.50;82.40;;;;;;5160132;27;19938;-96
2022/08/04 04:16:28;;;;;;;;;;;21.40;82.80;;;;;;5179366;27;19945;-96
2022/08/04 04:19:05;;;;;;;;;;;21.40;83.20;;;;;;5178986;27;19946;-96
2022/08/04 04:21:48;;;;;;;;;;;21.30;83.30;;;;;;5179971;27;19935;-96
2022/08/04 04:24:32;;;;;;;;;;;21.30;83.40;;;;;;5160512;27;19943;-96
2022/08/04 04:27:01;;;;;;;;;;;21.30;82.20;;;;;;5160746;27;19970;-96
2022/08/04 04:29:45;;;;;;;;;;;21.20;82.40;;;;;;5179183;27;19980;-96
2022/08/04 04:55:03;;;;;;;;;;;21.80;83.70;;;;;;5104129;27;2123806;-96
2022/08/04 04:57:33;;;;;;;;;;;22.20;82.50;;;;;;5179818;27;19945;-96
2022/08/04 05:00:01;;;;;;;;;;;22.20;82.40;;;;;;5181002;27;19984;-96
2022/08/04 05:02:33;;;;;;;;;;;22.40;81.60;;;;;;5180769;27;19951;-96
2022/08/04 05:05:04;;;;;;;;;;;22.50;80.80;;;;;;5162878;27;19968;-96
2022/08/04 05:07:40;;;;;;;;;;;22.60;80.20;;;;;;5162269;27;20011;-96
2022/08/04 05:10:08;;;;;;;;;;;22.80;80.20;;;;;;5179961;27;20398;-96
2022/08/04 05:12:43;;;;;;;;;;;22.70;79.50;;;;;;5178047;27;19933;-96
2022/08/04 05:15:09;;;;;;;;;;;22.80;79.60;;;;;;5177699;27;19947;-96
2022/08/04 05:21:26;;;;;;;;;;;23.00;79.60;;;;;;5096077;27;2487342;-96
2022/08/04 05:23:55;;;;;;;;;;;23.20;79.00;;;;;;5163747;27;20342;-96
2022/08/04 05:28:32;;;;;;;;;;;23.30;78.70;;;;;;5141364;27;19945;-96
2022/08/04 05:48:19;;;;;;;;;;;23.60;77.80;;;;;;5176084;27;19953;-96
2022/08/04 05:50:47;;;;;;;;;;;24.40;72.60;;;;;;5209452;27;19942;-97
2022/08/04 05:59:45;;;;;;;;;;;24.70;71.90;;;;;;5237103;22;19980;-96
2022/08/04 06:02:24;;;;;;;;;;;24.80;71.10;;;;;;5097336;28;19953;-97
2022/08/04 06:05:20;;;;;;;;;;;25.10;70.20;;;;;;5100388;28;19945;-96
2022/08/04 06:07:56;;;;;;;;;;;25.40;69.30;;;;;;5064930;28;19939;-96
2022/08/04 06:29:28;;;;;;;;;;;26.50;63.40;;;;;;6123420;23;19965;-96
2022/08/04 06:32:12;;;;;;;;;;;26.50;63.10;;;;;;5073273;28;19953;-96
2022/08/04 07:48:58;;;;;;;;;;;28.50;55.10;;;;;;6288463;22;19967;-96
2022/08/04 07:57:01;;;;;;;;;;;28.70;52.90;;;;;;6218457;22;19969;-96
2022/08/04 07:59:30;;;;;;;;;;;28.80;53.00;;;;;;6249664;23;19938;-96
2022/08/04 08:01:58;;;;;;;;;;;28.90;53.10;;;;;;6238143;23;19988;-96
2022/08/04 08:04:24;;;;;;;;;;;28.90;53.20;;;;;;6238039;23;19970;-96
2022/08/04 08:06:50;;;;;;;;;;;28.90;52.80;;;;;;6240707;23;20288;-96
2022/08/04 08:09:17;;;;;;;;;;;29.00;53.00;;;;;;6242226;23;19939;-96
2022/08/04 08:11:47;;;;;;;;;;;28.90;52.70;;;;;;6240381;23;19936;-96
2022/08/04 08:14:25;;;;;;;;;;;29.10;52.10;;;;;;6242074;23;19995;-96
2022/08/04 08:16:51;;;;;;;;;;;29.10;52.10;;;;;;6239459;23;20281;-96
2022/08/04 08:19:17;;;;;;;;;;;29.20;52.20;;;;;;6235582;23;19934;-96
2022/08/04 08:21:47;;;;;;;;;;;29.20;51.70;;;;;;6231177;23;19937;-96
2022/08/04 08:24:13;;;;;;;;;;;29.20;51.70;;;;;;6232596;23;19927;-96
2022/08/04 08:26:40;;;;;;;;;;;29.30;51.90;;;;;;6230819;23;19933;-96
2022/08/04 08:29:06;;;;;;;;;;;29.50;52.60;;;;;;6232909;23;19941;-96
2022/08/04 08:31:32;;;;;;;;;;;29.70;51.90;;;;;;6233089;23;19947;-96
2022/08/04 08:34:00;;;;;;;;;;;29.90;50.20;;;;;;6237181;23;19938;-96
2022/08/04 08:36:32;;;;;;;;;;;30.00;49.60;;;;;;6241264;23;19978;-96
2022/08/04 08:39:12;;;;;;;;;;;30.00;48.30;;;;;;6242433;23;19971;-96
2022/08/04 08:41:54;;;;;;;;;;;30.10;50.50;;;;;;6240492;23;19955;-96
2022/08/04 08:44:42;;;;;;;;;;;30.20;50.20;;;;;;6241156;23;19916;-96
2022/08/04 08:50:05;;;;;;;;;;;30.20;48.90;;;;;;6228730;22;19981;-96
2022/08/04 09:01:53;;;;;;;;;;;30.40;46.90;;;;;;6215838;22;19973;-96
2022/08/04 11:07:05;;;;;;;;;;;33.80;34.90;;;;;;6256872;22;19965;-96
2022/08/04 11:09:36;;;;;;;;;;;33.80;32.60;;;;;;6272997;22;19932;-96
2022/08/04 11:12:18;;;;;;;;;;;33.90;32.10;;;;;;6247384;23;19957;-96
2022/08/04 11:14:56;;;;;;;;;;;33.90;31.30;;;;;;6217401;23;19964;-96
2022/08/04 11:17:52;;;;;;;;;;;33.90;31.20;;;;;;6245126;23;19945;-96
2022/08/04 11:20:36;;;;;;;;;;;34.00;31.60;;;;;;6248390;22;19940;-96
2022/08/04 11:23:16;;;;;;;;;;;34.20;32.70;;;;;;6251826;22;20138;-96
2022/08/04 11:25:53;;;;;;;;;;;34.30;31.30;;;;;;6258044;23;19953;-96
2022/08/04 13:45:31;;;;;;;;;;;42.10;21.90;;;;;;6262064;22;19996;-97
2022/08/04 13:48:04;;;;;;;;;;;41.40;22.30;;;;;;5269529;23;23156452;-96
2022/08/04 13:50:35;;;;;;;;;;;41.60;21.80;;;;;;6280633;22;19934;-97
2022/08/04 13:53:05;;;;;;;;;;;42.70;21.40;;;;;;6281854;22;19949;-96
2022/08/04 13:55:51;;;;;;;;;;;42.60;21.50;;;;;;6281896;23;19929;-96
2022/08/04 13:58:26;;;;;;;;;;;43.60;20.60;;;;;;6281311;22;19969;-96
2022/08/04 14:01:06;;;;;;;;;;;43.60;21.10;;;;;;6278092;23;19943;-97
2022/08/04 14:03:57;;;;;;;;;;;43.10;20.50;;;;;;6276618;23;19935;-96
2022/08/04 14:29:47;;;;;;;;;;;40.00;23.30;;;;;;6261119;22;19964;-96
2022/08/04 14:50:41;;;;;;;;;;;43.50;19.30;;;;;;6231347;22;19987;-96
2022/08/04 14:53:10;;;;;;;;;;;42.90;19.80;;;;;;6246516;23;19960;-96
2022/08/04 14:55:49;;;;;;;;;;;42.60;20.20;;;;;;6244283;23;19942;-96
2022/08/04 14:58:33;;;;;;;;;;;42.50;19.90;;;;;;6299567;22;19969;-96
2022/08/04 15:14:03;;;;;;;;;;;43.90;20.40;;;;;;6247133;22;19974;-96
2022/08/04 15:16:31;;;;;;;;;;;43.60;20.00;;;;;;6274892;23;19940;-96
2022/08/04 15:47:27;;;;;;;;;;;42.40;21.00;;;;;;6256623;22;19958;-96
2022/08/04 16:19:30;;;;;;;;;;;40.30;23.00;;;;;;5965211;22;6209760;-96
2022/08/04 16:22:09;;;;;;;;;;;39.20;24.20;;;;;;6224130;23;19925;-96
2022/08/04 16:24:50;;;;;;;;;;;39.10;24.30;;;;;;6247062;23;20281;-96
2022/08/04 16:27:36;;;;;;;;;;;38.60;24.20;;;;;;6220599;23;19960;-96
2022/08/04 16:30:04;;;;;;;;;;;38.90;24.90;;;;;;6216882;23;19941;-97
2022/08/04 16:32:38;;;;;;;;;;;39.00;24.20;;;;;;6243031;23;19937;-96
2022/08/04 16:35:16;;;;;;;;;;;39.20;25.00;;;;;;6242000;23;19935;-98
2022/08/04 16:37:42;;;;;;;;;;;39.30;24.10;;;;;;6206574;23;19927;-96
2022/08/04 16:40:42;;;;;;;;;;;38.50;25.00;;;;;;5121042;27;20037;-96
2022/08/04 16:43:09;;;;;;;;;;;37.90;25.90;;;;;;5120001;28;19945;-96
2022/08/04 16:45:38;;;;;;;;;;;37.70;26.00;;;;;;5119539;28;19945;-96
2022/08/04 16:48:07;;;;;;;;;;;37.60;26.50;;;;;;5118376;28;19943;-96
2022/08/04 16:50:44;;;;;;;;;;;37.60;26.40;;;;;;5118421;28;19944;-96
2022/08/04 16:53:11;;;;;;;;;;;37.70;25.80;;;;;;5119563;28;20012;-96
2022/08/04 16:55:37;;;;;;;;;;;37.90;26.80;;;;;;5118941;28;20460;-96
2022/08/04 16:58:03;;;;;;;;;;;38.20;27.60;;;;;;5119211;28;19948;-96
2022/08/04 17:00:36;;;;;;;;;;;38.30;30.50;;;;;;5120276;28;20314;-96
2022/08/04 17:03:02;;;;;;;;;;;38.00;31.30;;;;;;5117459;28;19960;-96
2022/08/04 17:05:28;;;;;;;;;;;37.70;32.60;;;;;;5118020;28;19951;-96
2022/08/04 17:07:55;;;;;;;;;;;37.50;33.40;;;;;;5116014;28;19939;-96
2022/08/04 17:10:32;;;;;;;;;;;37.50;33.80;;;;;;5115714;28;20029;-96
2022/08/04 17:12:58;;;;;;;;;;;37.30;33.50;;;;;;5120443;28;19937;-96
2022/08/04 17:15:24;;;;;;;;;;;37.00;35.00;;;;;;5118889;28;20034;-96
2022/08/04 17:17:50;;;;;;;;;;;36.80;34.90;;;;;;5119559;28;20126;-96
2022/08/04 17:20:16;;;;;;;;;;;36.40;34.80;;;;;;5120429;28;19995;-96
2022/08/04 17:22:43;;;;;;;;;;;36.10;35.30;;;;;;5130497;28;19993;-97
2022/08/04 17:25:12;;;;;;;;;;;35.80;35.80;;;;;;5164110;27;19948;-96
2022/08/04 17:27:41;;;;;;;;;;;35.70;36.30;;;;;;5123176;28;19968;-96
2022/08/04 17:30:24;;;;;;;;;;;35.50;36.70;;;;;;5122472;28;19963;-96
2022/08/04 17:32:50;;;;;;;;;;;35.30;38.20;;;;;;5123666;28;19943;-96
2022/08/04 17:35:15;;;;;;;;;;;35.20;38.10;;;;;;5121880;28;20019;-96
2022/08/04 17:37:41;;;;;;;;;;;35.20;38.20;;;;;;5122762;28;19940;-96
2022/08/04 17:40:11;;;;;;;;;;;35.10;39.10;;;;;;5139238;28;20012;-96
2022/08/04 17:42:38;;;;;;;;;;;35.00;39.00;;;;;;5141950;28;19942;-96
2022/08/04 17:45:08;;;;;;;;;;;34.80;38.60;;;;;;5139418;28;19941;-96
2022/08/04 17:47:33;;;;;;;;;;;34.60;39.50;;;;;;5136222;28;19935;-96
2022/08/04 17:50:06;;;;;;;;;;;34.20;40.50;;;;;;5133469;28;19961;-96
2022/08/04 17:52:32;;;;;;;;;;;34.10;40.90;;;;;;5122865;28;19986;-96
2022/08/04 17:54:58;;;;;;;;;;;33.90;40.20;;;;;;5122922;28;19952;-96
2022/08/04 17:57:24;;;;;;;;;;;33.70;41.10;;;;;;5103176;28;20384;-96
2022/08/04 17:59:52;;;;;;;;;;;33.70;41.30;;;;;;5123062;28;20027;-96
2022/08/04 18:02:22;;;;;;;;;;;33.40;41.30;;;;;;5104066;28;19946;-96
2022/08/04 18:04:48;;;;;;;;;;;33.40;41.60;;;;;;5122797;28;19937;-96
2022/08/04 18:07:14;;;;;;;;;;;33.20;42.00;;;;;;5123143;28;19992;-96
2022/08/04 18:09:43;;;;;;;;;;;33.10;42.40;;;;;;5123356;28;19947;-96
2022/08/04 18:12:10;;;;;;;;;;;32.90;42.50;;;;;;5124032;28;19939;-96
2022/08/04 18:14:40;;;;;;;;;;;32.80;42.70;;;;;;5123648;28;19939;-96
2022/08/04 18:17:06;;;;;;;;;;;32.70;42.80;;;;;;5123123;28;20082;-96
2022/08/04 18:19:32;;;;;;;;;;;32.60;43.90;;;;;;5103916;28;19973;-96
2022/08/04 18:21:58;;;;;;;;;;;32.40;44.20;;;;;;5102863;28;19945;-96
2022/08/04 18:24:23;;;;;;;;;;;32.40;44.40;;;;;;5120758;28;20408;-96
2022/08/04 18:26:50;;;;;;;;;;;32.20;45.00;;;;;;5120627;28;20393;-96
2022/08/04 18:29:16;;;;;;;;;;;32.20;45.10;;;;;;5103128;28;19981;-96
2022/08/04 18:31:41;;;;;;;;;;;32.20;45.70;;;;;;5121625;28;19942;-96
2022/08/04 18:34:07;;;;;;;;;;;32.10;45.70;;;;;;5102819;28;19992;-96
2022/08/04 18:36:34;;;;;;;;;;;32.00;45.60;;;;;;5121390;28;19953;-96
2022/08/04 18:39:00;;;;;;;;;;;31.80;46.30;;;;;;5120866;28;19985;-96
2022/08/04 18:41:27;;;;;;;;;;;31.70;45.50;;;;;;5103274;28;19948;-96
2022/08/04 18:43:53;;;;;;;;;;;31.60;45.40;;;;;;5122086;28;19991;-96
2022/08/04 18:46:19;;;;;;;;;;;31.60;45.30;;;;;;5107133;28;19939;-96
2022/08/04 18:48:44;;;;;;;;;;;31.50;45.10;;;;;;5124647;28;19964;-96
2022/08/04 18:51:10;;;;;;;;;;;31.50;45.20;;;;;;5124563;28;19944;-96
2022/08/04 18:53:35;;;;;;;;;;;31.50;45.40;;;;;;5121085;28;19982;-96
2022/08/04 18:56:01;;;;;;;;;;;31.40;45.20;;;;;;5104697;28;19947;-96
2022/08/04 18:58:27;;;;;;;;;;;31.30;45.70;;;;;;5124358;28;20001;-96
2022/08/04 19:00:54;;;;;;;;;;;31.20;46.50;;;;;;5125158;28;19943;-96
2022/08/04 19:03:20;;;;;;;;;;;31.10;46.50;;;;;;5104549;28;19948;-96
2022/08/04 19:05:45;;;;;;;;;;;31.00;47.00;;;;;;5105332;28;19997;-96
2022/08/04 19:08:14;;;;;;;;;;;30.90;47.10;;;;;;5124555;28;19986;-96
2022/08/04 19:10:39;;;;;;;;;;;30.90;48.00;;;;;;5124220;28;20030;-96
2022/08/04 19:13:05;;;;;;;;;;;30.80;47.90;;;;;;5125505;28;20303;-96
2022/08/04 19:15:31;;;;;;;;;;;30.70;48.60;;;;;;5106000;28;19979;-96
2022/08/04 19:17:57;;;;;;;;;;;30.70;49.20;;;;;;5123180;28;19949;-96
2022/08/04 19:20:22;;;;;;;;;;;30.60;48.90;;;;;;5104547;28;19967;-96
2022/08/04 19:22:48;;;;;;;;;;;30.50;49.30;;;;;;5106249;28;19945;-96
2022/08/04 19:25:14;;;;;;;;;;;30.30;51.60;;;;;;5123383;28;20426;-96
2022/08/04 19:27:39;;;;;;;;;;;30.20;51.60;;;;;;5124318;28;19948;-96
2022/08/04 19:30:05;;;;;;;;;;;30.00;52.20;;;;;;5123703;28;19990;-96
2022/08/04 19:32:31;;;;;;;;;;;29.80;52.80;;;;;;5120387;28;19962;-96
2022/08/04 19:34:56;;;;;;;;;;;29.70;53.60;;;;;;5120253;28;19934;-96
2022/08/04 19:37:23;;;;;;;;;;;29.60;54.70;;;;;;5119702;28;20455;-96
2022/08/04 19:39:49;;;;;;;;;;;29.30;55.40;;;;;;5118864;28;20065;-96
2022/08/04 19:42:15;;;;;;;;;;;29.20;55.50;;;;;;5119848;28;19941;-96
2022/08/04 19:44:41;;;;;;;;;;;29.00;55.40;;;;;;5119216;28;19971;-96
2022/08/04 19:47:06;;;;;;;;;;;29.00;55.30;;;;;;5118528;28;20391;-96
2022/08/04 19:49:32;;;;;;;;;;;28.90;57.10;;;;;;5103726;28;20292;-96
2022/08/04 19:51:58;;;;;;;;;;;28.80;57.30;;;;;;5122974;28;19936;-96
2022/08/04 19:54:23;;;;;;;;;;;28.80;58.10;;;;;;5122500;28;19948;-96
2022/08/04 19:56:49;;;;;;;;;;;28.80;58.60;;;;;;5122111;28;19943;-96
2022/08/04 19:59:14;;;;;;;;;;;28.70;56.90;;;;;;5121962;28;19963;-96
2022/08/04 20:01:40;;;;;;;;;;;28.70;57.60;;;;;;5103593;28;19944;-96
2022/08/04 20:04:06;;;;;;;;;;;28.70;57.70;;;;;;5123008;28;20348;-96
2022/08/04 20:06:31;;;;;;;;;;;28.60;58.20;;;;;;5104572;28;19939;-96
2022/08/04 20:08:57;;;;;;;;;;;28.60;56.70;;;;;;5122531;28;19943;-96
2022/08/04 20:11:23;;;;;;;;;;;28.50;57.00;;;;;;5121826;28;19942;-96
2022/08/04 20:13:48;;;;;;;;;;;28.50;55.80;;;;;;5103916;28;19946;-96
2022/08/04 20:16:15;;;;;;;;;;;28.50;56.90;;;;;;5123432;28;19996;-96
2022/08/04 20:18:41;;;;;;;;;;;28.50;60.50;;;;;;5121584;28;19960;-96
2022/08/04 20:21:06;;;;;;;;;;;28.40;58.80;;;;;;5119887;28;20042;-96
2022/08/04 20:23:32;;;;;;;;;;;28.20;59.00;;;;;;5118657;28;19938;-96
2022/08/04 20:25:58;;;;;;;;;;;28.10;59.60;;;;;;5098934;28;20407;-96
2022/08/04 20:28:26;;;;;;;;;;;28.00;59.10;;;;;;5117769;28;20381;-96
2022/08/04 20:30:51;;;;;;;;;;;27.80;59.40;;;;;;5118315;28;19938;-96
2022/08/04 20:33:17;;;;;;;;;;;27.80;58.60;;;;;;5118565;28;19941;-96
2022/08/04 20:35:42;;;;;;;;;;;27.80;58.00;;;;;;5118690;28;20348;-96
2022/08/04 20:38:08;;;;;;;;;;;28.00;56.10;;;;;;5119447;28;19939;-96
2022/08/04 20:40:35;;;;;;;;;;;28.00;56.90;;;;;;5120013;28;20360;-96
2022/08/04 20:43:01;;;;;;;;;;;27.70;59.60;;;;;;5118813;28;19937;-96
2022/08/04 20:45:26;;;;;;;;;;;27.50;60.00;;;;;;5122526;28;19951;-96
2022/08/04 20:47:52;;;;;;;;;;;27.40;61.20;;;;;;5122131;28;19945;-96
2022/08/04 20:50:17;;;;;;;;;;;27.20;60.60;;;;;;5120931;28;19937;-96
2022/08/04 20:52:44;;;;;;;;;;;27.20;59.50;;;;;;5120218;28;20005;-96
2022/08/04 20:55:10;;;;;;;;;;;27.20;58.40;;;;;;5120326;28;20385;-96
2022/08/04 20:57:36;;;;;;;;;;;27.20;59.10;;;;;;5121711;28;19964;-96
2022/08/04 21:00:03;;;;;;;;;;;27.20;59.30;;;;;;5102964;28;19971;-96
2022/08/04 21:02:28;;;;;;;;;;;27.20;61.40;;;;;;5103661;28;20392;-96
2022/08/04 21:04:54;;;;;;;;;;;27.20;59.80;;;;;;5121408;28;19948;-96
2022/08/04 21:07:21;;;;;;;;;;;27.20;60.40;;;;;;5121308;28;19939;-96
2022/08/04 21:09:48;;;;;;;;;;;27.30;60.80;;;;;;5120392;28;19944;-96
2022/08/04 21:12:14;;;;;;;;;;;27.10;60.80;;;;;;5120922;28;19942;-96
2022/08/04 21:14:40;;;;;;;;;;;27.20;61.00;;;;;;5121029;28;20343;-96
2022/08/04 21:17:06;;;;;;;;;;;27.20;61.30;;;;;;5122013;28;20000;-96
2022/08/04 21:19:32;;;;;;;;;;;27.10;62.00;;;;;;5123030;28;19961;-96
2022/08/04 21:21:58;;;;;;;;;;;26.80;62.30;;;;;;5105312;28;19952;-96
2022/08/04 21:24:23;;;;;;;;;;;26.70;62.00;;;;;;5124064;28;19989;-96
2022/08/04 21:26:50;;;;;;;;;;;26.80;61.30;;;;;;5106636;28;19941;-96
2022/08/04 21:29:16;;;;;;;;;;;26.80;59.90;;;;;;5125686;28;19949;-96
2022/08/04 21:31:43;;;;;;;;;;;26.90;60.50;;;;;;5107401;28;19994;-96
2022/08/04 21:34:09;;;;;;;;;;;26.80;61.60;;;;;;5124887;28;19955;-96
2022/08/04 21:36:34;;;;;;;;;;;26.60;61.60;;;;;;5125537;28;20009;-96
2022/08/04 21:39:00;;;;;;;;;;;26.50;63.50;;;;;;5122909;28;19973;-96
2022/08/04 21:41:25;;;;;;;;;;;26.50;61.50;;;;;;5121228;28;20073;-96
2022/08/04 21:43:51;;;;;;;;;;;26.60;61.80;;;;;;5120822;28;19935;-96
2022/08/04 21:46:17;;;;;;;;;;;26.70;63.40;;;;;;5101620;28;20037;-96
2022/08/04 21:48:43;;;;;;;;;;;26.50;63.20;;;;;;5120040;28;19938;-96
2022/08/04 21:51:27;;;;;;;;;;;26.30;64.30;;;;;;5120717;28;19951;-96
2022/08/04 21:53:53;;;;;;;;;;;26.30;65.20;;;;;;5120645;28;19971;-96
2022/08/04 21:56:19;;;;;;;;;;;26.30;64.50;;;;;;5120814;28;19940;-96
2022/08/04 21:58:44;;;;;;;;;;;26.30;65.80;;;;;;5120762;28;20301;-96
2022/08/04 22:01:11;;;;;;;;;;;26.30;65.90;;;;;;5121465;28;19975;-96
2022/08/04 22:03:40;;;;;;;;;;;26.20;65.40;;;;;;5121328;28;20426;-96
2022/08/04 22:06:06;;;;;;;;;;;26.30;65.70;;;;;;5121647;28;19937;-96
2022/08/04 22:08:31;;;;;;;;;;;26.20;66.00;;;;;;5121748;28;19950;-96
2022/08/04 22:10:57;;;;;;;;;;;26.30;66.20;;;;;;5121782;28;20325;-96
2022/08/04 22:13:22;;;;;;;;;;;26.10;64.90;;;;;;5121337;28;19941;-96
2022/08/04 22:15:48;;;;;;;;;;;25.80;66.10;;;;;;5120752;28;19990;-96
2022/08/04 22:18:14;;;;;;;;;;;25.80;66.80;;;;;;5121202;28;20013;-96
2022/08/04 22:20:39;;;;;;;;;;;25.80;67.40;;;;;;5120494;28;20623;-96
2022/08/04 22:23:05;;;;;;;;;;;25.80;68.40;;;;;;5120457;28;19953;-96
2022/08/04 22:25:30;;;;;;;;;;;25.80;67.50;;;;;;5122437;28;19937;-96
2022/08/04 22:27:59;;;;;;;;;;;25.70;67.80;;;;;;5122926;28;20021;-96
2022/08/04 22:30:25;;;;;;;;;;;25.80;68.30;;;;;;5122705;28;19938;-96
2022/08/04 22:32:51;;;;;;;;;;;25.70;67.70;;;;;;5123802;28;19950;-96
2022/08/04 22:35:17;;;;;;;;;;;25.70;68.30;;;;;;5104552;28;19942;-96
2022/08/04 22:37:42;;;;;;;;;;;25.40;68.50;;;;;;5103613;28;19954;-96
2022/08/04 22:40:08;;;;;;;;;;;25.20;69.50;;;;;;5117727;28;19977;-96
2022/08/04 22:42:34;;;;;;;;;;;25.20;69.90;;;;;;5118787;28;20286;-96
2022/08/04 22:44:59;;;;;;;;;;;25.10;68.50;;;;;;5100404;28;20360;-96
2022/08/04 22:47:25;;;;;;;;;;;25.00;68.50;;;;;;5118374;28;19938;-96
2022/08/04 22:49:51;;;;;;;;;;;25.10;68.60;;;;;;5118997;28;19939;-96
2022/08/04 22:52:16;;;;;;;;;;;25.20;68.60;;;;;;5119371;28;19935;-96
2022/08/04 22:54:42;;;;;;;;;;;25.30;69.10;;;;;;5119296;28;19977;-96
2022/08/04 22:57:08;;;;;;;;;;;25.20;70.00;;;;;;5118657;28;19981;-96
2022/08/04 22:59:34;;;;;;;;;;;25.10;69.50;;;;;;5118623;28;20052;-96
2022/08/04 23:01:59;;;;;;;;;;;25.00;69.50;;;;;;5118506;28;20435;-96
2022/08/04 23:04:25;;;;;;;;;;;25.00;70.00;;;;;;5118680;28;19937;-96
2022/08/04 23:06:53;;;;;;;;;;;25.00;69.70;;;;;;5118727;28;20001;-96
2022/08/04 23:09:18;;;;;;;;;;;25.00;70.70;;;;;;5119311;28;20031;-96
2022/08/04 23:11:44;;;;;;;;;;;25.00;70.70;;;;;;5118889;28;19942;-96
2022/08/04 23:14:10;;;;;;;;;;;25.00;70.10;;;;;;5119854;28;20007;-96
2022/08/04 23:16:36;;;;;;;;;;;25.00;71.00;;;;;;5118636;28;19995;-96
2022/08/04 23:19:01;;;;;;;;;;;25.00;71.30;;;;;;5100462;28;20046;-96
2022/08/04 23:21:27;;;;;;;;;;;24.90;71.80;;;;;;5119482;28;20467;-96
2022/08/04 23:23:52;;;;;;;;;;;24.80;73.00;;;;;;5119235;28;20303;-96
2022/08/04 23:26:18;;;;;;;;;;;24.70;73.50;;;;;;5121513;28;19952;-96
2022/08/04 23:28:44;;;;;;;;;;;24.60;73.00;;;;;;5123545;28;19946;-96
2022/08/04 23:31:10;;;;;;;;;;;24.50;72.40;;;;;;5122654;28;20037;-96
2022/08/04 23:36:00;;;;;;;;;;;24.60;72.10;;;;;;5119807;27;20421;-96
2022/08/04 23:38:25;;;;;;;;;;;24.40;73.00;;;;;;5116553;27;19973;-96